createdAt,value
2022-12-12T00:00:02.881Z,-3.38
2022-12-12T00:00:13.643Z,-3.38
2022-12-12T00:00:24.450Z,-3.39
2022-12-12T00:00:36.221Z,-3.41
2022-12-12T00:00:47.954Z,-3.39
2022-12-12T00:01:04.440Z,-3.41
2022-12-12T00:01:17.332Z,-3.43
2022-12-12T00:01:28.061Z,-3.43
2022-12-12T00:01:39.764Z,-3.43
2022-12-12T00:01:51.475Z,-3.44
2022-12-12T00:02:03.434Z,-3.46
2022-12-12T00:02:14.367Z,-3.47
2022-12-12T00:02:25.274Z,-3.47
2022-12-12T00:02:37.078Z,-3.49
2022-12-12T00:02:47.904Z,-3.49
2022-12-12T00:02:58.825Z,-3.50
2022-12-12T00:03:11.673Z,-3.50
2022-12-12T00:03:24.255Z,-3.50
2022-12-12T00:03:36.641Z,-3.51
2022-12-12T00:03:48.539Z,-3.50
2022-12-12T00:03:59.351Z,-3.51
2022-12-12T00:04:11.822Z,-3.53
2022-12-12T00:04:24.272Z,-3.53
2022-12-12T00:04:35.973Z,-3.54
2022-12-12T00:04:46.736Z,-3.54
2022-12-12T00:04:58.562Z,-3.54
2022-12-12T00:05:09.601Z,-3.54
2022-12-12T00:05:22.234Z,-3.56
2022-12-12T00:05:33.038Z,-3.54
2022-12-12T00:05:44.803Z,-3.57
2022-12-12T00:05:56.533Z,-3.56
2022-12-12T00:06:07.301Z,-3.60
2022-12-12T00:06:18.091Z,-3.60
2022-12-12T00:06:28.861Z,-3.60
2022-12-12T00:06:40.554Z,-3.60
2022-12-12T00:06:51.315Z,-3.57
2022-12-12T00:07:02.111Z,-3.61
2022-12-12T00:07:14.315Z,-3.61
2022-12-12T00:07:25.114Z,-3.61
2022-12-12T00:07:37.584Z,-3.61
2022-12-12T00:07:50.136Z,-3.62
2022-12-12T00:08:02.941Z,-3.62
2022-12-12T00:08:13.768Z,-3.64
2022-12-12T00:08:24.564Z,-3.64
2022-12-12T00:08:37.044Z,-3.64
2022-12-12T00:08:48.752Z,-3.64
2022-12-12T00:09:00.463Z,-3.65
2022-12-12T00:09:11.213Z,-3.65
2022-12-12T00:09:21.956Z,-3.65
2022-12-12T00:09:34.482Z,-3.67
2022-12-12T00:09:45.292Z,-3.67
2022-12-12T00:09:56.014Z,-3.68
2022-12-12T00:10:06.745Z,-3.67
2022-12-12T00:10:17.518Z,-3.67
2022-12-12T00:10:29.205Z,-3.68
2022-12-12T00:10:39.925Z,-3.70
2022-12-12T00:10:52.138Z,-3.68
2022-12-12T00:11:02.873Z,-3.70
2022-12-12T00:11:15.087Z,-3.68
2022-12-12T00:11:25.903Z,-3.68
2022-12-12T00:11:38.485Z,-3.68
2022-12-12T00:11:50.456Z,-3.70
2022-12-12T00:12:01.219Z,-3.70
2022-12-12T00:12:13.652Z,-3.70
2022-12-12T00:12:25.382Z,-3.71
2022-12-12T00:12:37.812Z,-3.70
2022-12-12T00:12:48.544Z,-3.70
2022-12-12T00:13:00.774Z,-3.71
2022-12-12T00:13:12.505Z,-3.71
2022-12-12T00:13:24.225Z,-3.71
2022-12-12T00:13:36.723Z,-3.71
2022-12-12T00:13:49.209Z,-3.71
2022-12-12T00:14:00.039Z,-3.72
2022-12-12T00:14:10.765Z,-3.72
2022-12-12T00:14:23.183Z,-3.71
2022-12-12T00:14:35.431Z,-3.71
2022-12-12T00:14:48.634Z,-3.71
2022-12-12T00:14:59.383Z,-3.70
2022-12-12T00:15:11.456Z,-3.71
2022-12-12T00:15:23.336Z,-3.71
2022-12-12T00:15:34.111Z,-3.72
2022-12-12T00:15:45.829Z,-3.71
2022-12-12T00:15:58.267Z,-3.71
2022-12-12T00:16:09.017Z,-3.71
2022-12-12T00:16:19.760Z,-3.72
2022-12-12T00:16:31.496Z,-3.71
2022-12-12T00:16:43.714Z,-3.71
2022-12-12T00:16:54.455Z,-3.71
2022-12-12T00:17:06.183Z,-3.72
2022-12-12T00:17:17.895Z,-3.71
2022-12-12T00:17:28.683Z,-3.72
2022-12-12T00:17:40.435Z,-3.72
2022-12-12T00:17:52.884Z,-3.75
2022-12-12T00:18:05.326Z,-3.72
2022-12-12T00:18:16.999Z,-3.72
2022-12-12T00:18:28.755Z,-3.72
2022-12-12T00:18:41.493Z,-3.75
2022-12-12T00:18:52.297Z,-3.72
2022-12-12T00:19:04.035Z,-3.72
2022-12-12T00:19:15.748Z,-3.76
2022-12-12T00:19:26.513Z,-3.76
2022-12-12T00:19:37.279Z,-3.76
2022-12-12T00:19:48.014Z,-3.76
2022-12-12T00:19:58.773Z,-3.75
2022-12-12T00:20:09.732Z,-3.76
2022-12-12T00:20:20.526Z,-3.76
2022-12-12T00:20:31.277Z,-3.76
2022-12-12T00:20:42.044Z,-3.76
2022-12-12T00:20:52.795Z,-3.78
2022-12-12T00:21:03.548Z,-3.80
2022-12-12T00:21:15.283Z,-3.80
2022-12-12T00:21:26.045Z,-3.80
2022-12-12T00:21:36.814Z,-3.81
2022-12-12T00:21:48.524Z,-3.80
2022-12-12T00:21:59.334Z,-3.81
2022-12-12T00:22:11.135Z,-3.81
2022-12-12T00:22:22.889Z,-3.81
2022-12-12T00:22:36.087Z,-3.81
2022-12-12T00:22:46.836Z,-3.81
2022-12-12T00:22:58.566Z,-3.83
2022-12-12T00:23:10.287Z,-3.81
2022-12-12T00:23:22.506Z,-3.81
2022-12-12T00:23:34.250Z,-3.81
2022-12-12T00:23:45.965Z,-3.81
2022-12-12T00:23:57.713Z,-3.81
2022-12-12T00:24:08.494Z,-3.83
2022-12-12T00:24:19.284Z,-3.81
2022-12-12T00:24:30.075Z,-3.81
2022-12-12T00:24:41.794Z,-3.81
2022-12-12T00:24:54.225Z,-3.80
2022-12-12T00:25:04.987Z,-3.80
2022-12-12T00:25:15.848Z,-3.76
2022-12-12T00:25:27.647Z,-3.76
2022-12-12T00:25:38.404Z,-3.76
2022-12-12T00:25:50.365Z,-3.72
2022-12-12T00:26:01.134Z,-3.72
2022-12-12T00:26:12.844Z,-3.71
2022-12-12T00:26:23.614Z,-3.72
2022-12-12T00:26:35.324Z,-3.70
2022-12-12T00:26:46.095Z,-3.70
2022-12-12T00:26:58.544Z,-3.68
2022-12-12T00:27:11.025Z,-3.68
2022-12-12T00:27:24.735Z,-3.67
2022-12-12T00:27:35.525Z,-3.65
2022-12-12T00:27:46.271Z,-3.67
2022-12-12T00:27:59.185Z,-3.67
2022-12-12T00:28:09.955Z,-3.67
2022-12-12T00:28:22.191Z,-3.65
2022-12-12T00:28:33.875Z,-3.67
2022-12-12T00:28:44.643Z,-3.68
2022-12-12T00:28:56.835Z,-3.67
2022-12-12T00:29:08.534Z,-3.68
2022-12-12T00:29:19.278Z,-3.67
2022-12-12T00:29:29.998Z,-3.68
2022-12-12T00:29:40.776Z,-3.68
2022-12-12T00:29:51.533Z,-3.70
2022-12-12T00:30:04.239Z,-3.70
2022-12-12T00:30:15.986Z,-3.70
2022-12-12T00:30:26.720Z,-3.70
2022-12-12T00:30:39.155Z,-3.70
2022-12-12T00:30:50.110Z,-3.71
2022-12-12T00:31:00.985Z,-3.71
2022-12-12T00:31:12.777Z,-3.71
2022-12-12T00:31:23.663Z,-3.72
2022-12-12T00:31:34.450Z,-3.72
2022-12-12T00:31:45.204Z,-3.72
2022-12-12T00:31:57.654Z,-3.72
2022-12-12T00:32:10.343Z,-3.72
2022-12-12T00:32:21.115Z,-3.72
2022-12-12T00:32:32.904Z,-3.72
2022-12-12T00:32:44.675Z,-3.71
2022-12-12T00:32:56.427Z,-3.72
2022-12-12T00:33:07.226Z,-3.72
2022-12-12T00:33:17.974Z,-3.71
2022-12-12T00:33:29.717Z,-3.75
2022-12-12T00:33:42.455Z,-3.72
2022-12-12T00:33:55.187Z,-3.75
2022-12-12T00:34:05.950Z,-3.72
2022-12-12T00:34:16.726Z,-3.75
2022-12-12T00:34:27.532Z,-3.72
2022-12-12T00:34:38.346Z,-3.72
2022-12-12T00:34:50.557Z,-3.72
2022-12-12T00:35:02.286Z,-3.76
2022-12-12T00:35:13.434Z,-3.75
2022-12-12T00:35:25.795Z,-3.76
2022-12-12T00:35:36.537Z,-3.78
2022-12-12T00:35:49.026Z,-3.78
2022-12-12T00:35:59.830Z,-3.78
2022-12-12T00:36:10.605Z,-3.80
2022-12-12T00:36:22.339Z,-3.78
2022-12-12T00:36:33.086Z,-3.80
2022-12-12T00:36:43.877Z,-3.81
2022-12-12T00:36:54.675Z,-3.81
2022-12-12T00:37:06.905Z,-3.81
2022-12-12T00:37:17.634Z,-3.81
2022-12-12T00:37:29.347Z,-3.83
2022-12-12T00:37:41.095Z,-3.84
2022-12-12T00:37:51.836Z,-3.84
2022-12-12T00:38:05.055Z,-3.84
2022-12-12T00:38:15.789Z,-3.84
2022-12-12T00:38:26.683Z,-3.86
2022-12-12T00:38:39.188Z,-3.87
2022-12-12T00:38:51.457Z,-3.87
2022-12-12T00:39:02.291Z,-3.89
2022-12-12T00:39:18.177Z,-3.89
2022-12-12T00:39:28.656Z,-3.90
2022-12-12T00:39:41.648Z,-3.90
2022-12-12T00:39:52.378Z,-3.90
2022-12-12T00:40:04.107Z,-3.90
2022-12-12T00:40:14.886Z,-3.90
2022-12-12T00:40:27.347Z,-3.89
2022-12-12T00:40:39.797Z,-3.89
2022-12-12T00:40:51.517Z,-3.89
2022-12-12T00:41:02.258Z,-3.90
2022-12-12T00:41:13.995Z,-3.89
2022-12-12T00:41:24.966Z,-3.90
2022-12-12T00:41:37.430Z,-3.89
2022-12-12T00:41:48.165Z,-3.90
2022-12-12T00:42:00.628Z,-3.90
2022-12-12T00:42:11.371Z,-3.90
2022-12-12T00:42:22.138Z,-3.89
2022-12-12T00:42:32.909Z,-3.91
2022-12-12T00:42:43.697Z,-3.91
2022-12-12T00:42:55.437Z,-3.91
2022-12-12T00:43:07.887Z,-3.91
2022-12-12T00:43:20.378Z,-3.91
2022-12-12T00:43:33.166Z,-3.91
2022-12-12T00:43:43.946Z,-3.90
2022-12-12T00:43:54.705Z,-3.91
2022-12-12T00:44:07.187Z,-3.93
2022-12-12T00:44:17.917Z,-3.91
2022-12-12T00:44:29.647Z,-3.94
2022-12-12T00:44:41.878Z,-3.93
2022-12-12T00:44:52.616Z,-3.93
2022-12-12T00:45:03.398Z,-3.94
2022-12-12T00:45:15.858Z,-3.94
2022-12-12T00:45:29.106Z,-3.94
2022-12-12T00:45:39.836Z,-3.94
2022-12-12T00:45:51.579Z,-3.94
2022-12-12T00:46:02.394Z,-3.94
2022-12-12T00:46:14.162Z,-3.94
2022-12-12T00:46:24.967Z,-3.94
2022-12-12T00:46:35.813Z,-3.93
2022-12-12T00:46:46.641Z,-3.94
2022-12-12T00:46:57.377Z,-3.93
2022-12-12T00:47:09.092Z,-3.93
2022-12-12T00:47:19.840Z,-3.94
2022-12-12T00:47:31.560Z,-3.94
2022-12-12T00:47:44.019Z,-3.94
2022-12-12T00:47:54.817Z,-3.96
2022-12-12T00:48:07.049Z,-3.94
2022-12-12T00:48:18.825Z,-3.96
2022-12-12T00:48:29.588Z,-3.96
2022-12-12T00:48:41.478Z,-3.96
2022-12-12T00:48:52.368Z,-3.96
2022-12-12T00:49:03.168Z,-3.96
2022-12-12T00:49:15.337Z,-3.98
2022-12-12T00:49:27.050Z,-3.98
2022-12-12T00:49:37.857Z,-3.98
2022-12-12T00:49:50.097Z,-3.98
2022-12-12T00:50:02.549Z,-3.99
2022-12-12T00:50:15.028Z,-3.99
2022-12-12T00:50:25.788Z,-3.99
2022-12-12T00:50:36.538Z,-3.99
2022-12-12T00:50:47.317Z,-4.01
2022-12-12T00:50:59.047Z,-4.01
2022-12-12T00:51:11.478Z,-4.02
2022-12-12T00:51:24.180Z,-4.02
2022-12-12T00:51:34.936Z,-4.02
2022-12-12T00:51:47.507Z,-4.02
2022-12-12T00:51:59.939Z,-4.02
2022-12-12T00:52:10.775Z,-4.04
2022-12-12T00:52:23.990Z,-4.05
2022-12-12T00:52:36.429Z,-4.05
2022-12-12T00:52:47.178Z,-4.04
2022-12-12T00:52:57.916Z,-4.04
2022-12-12T00:53:08.679Z,-4.04
2022-12-12T00:53:20.450Z,-4.04
2022-12-12T00:53:31.200Z,-4.04
2022-12-12T00:53:43.668Z,-4.04
2022-12-12T00:53:55.418Z,-4.07
2022-12-12T00:54:06.196Z,-4.05
2022-12-12T00:54:18.438Z,-4.07
2022-12-12T00:54:29.187Z,-4.08
2022-12-12T00:54:39.998Z,-4.08
2022-12-12T00:54:51.693Z,-4.08
2022-12-12T00:55:04.147Z,-4.09
2022-12-12T00:55:15.908Z,-4.08
2022-12-12T00:55:26.696Z,-4.09
2022-12-12T00:55:38.664Z,-4.09
2022-12-12T00:55:49.458Z,-4.12
2022-12-12T00:56:00.187Z,-4.11
2022-12-12T00:56:10.917Z,-4.11
2022-12-12T00:56:24.128Z,-4.12
2022-12-12T00:56:34.876Z,-4.11
2022-12-12T00:56:46.567Z,-4.14
2022-12-12T00:56:57.310Z,-4.14
2022-12-12T00:57:09.031Z,-4.14
2022-12-12T00:57:20.726Z,-4.15
2022-12-12T00:57:31.468Z,-4.15
2022-12-12T00:57:43.498Z,-4.18
2022-12-12T00:57:54.288Z,-4.15
2022-12-12T00:58:06.259Z,-4.18
2022-12-12T00:58:18.060Z,-4.19
2022-12-12T00:58:28.797Z,-4.19
2022-12-12T00:58:41.231Z,-4.20
2022-12-12T00:58:53.016Z,-4.19
2022-12-12T00:59:05.229Z,-4.19
2022-12-12T00:59:15.999Z,-4.22
2022-12-12T00:59:28.468Z,-4.22
2022-12-12T00:59:40.746Z,-4.22
2022-12-12T00:59:51.498Z,-4.23
2022-12-12T01:00:02.250Z,-4.22
2022-12-12T01:00:13.062Z,-4.23
2022-12-12T01:00:26.067Z,-4.23
2022-12-12T01:00:37.294Z,-4.23
2022-12-12T01:00:50.099Z,-4.23
2022-12-12T01:01:02.860Z,-4.25
2022-12-12T01:01:16.674Z,-4.25
2022-12-12T01:01:28.466Z,-4.25
2022-12-12T01:01:39.355Z,-4.25
2022-12-12T01:01:51.096Z,-4.25
2022-12-12T01:02:01.969Z,-4.25
2022-12-12T01:02:13.593Z,-4.26
2022-12-12T01:02:28.287Z,-4.25
2022-12-12T01:02:39.411Z,-4.26
2022-12-12T01:02:51.467Z,-4.26
2022-12-12T01:03:02.326Z,-4.26
2022-12-12T01:03:13.307Z,-4.26
2022-12-12T01:03:25.048Z,-4.28
2022-12-12T01:03:35.823Z,-4.28
2022-12-12T01:03:46.619Z,-4.28
2022-12-12T01:03:57.440Z,-4.29
2022-12-12T01:04:08.242Z,-4.29
2022-12-12T01:04:21.383Z,-4.30
2022-12-12T01:04:33.091Z,-4.30
2022-12-12T01:04:43.924Z,-4.32
2022-12-12T01:04:54.689Z,-4.33
2022-12-12T01:05:06.412Z,-4.33
2022-12-12T01:05:17.212Z,-4.33
2022-12-12T01:05:27.978Z,-4.33
2022-12-12T01:05:38.739Z,-4.36
2022-12-12T01:05:50.948Z,-4.37
2022-12-12T01:06:02.700Z,-4.37
2022-12-12T01:06:15.184Z,-4.37
2022-12-12T01:06:26.927Z,-4.38
2022-12-12T01:06:37.699Z,-4.38
2022-12-12T01:06:48.470Z,-4.38
2022-12-12T01:07:00.181Z,-4.38
2022-12-12T01:07:12.662Z,-4.38
2022-12-12T01:07:23.400Z,-4.40
2022-12-12T01:07:34.129Z,-4.40
2022-12-12T01:07:46.871Z,-4.41
2022-12-12T01:07:57.614Z,-4.41
2022-12-12T01:08:10.140Z,-4.43
2022-12-12T01:08:22.372Z,-4.43
2022-12-12T01:08:34.049Z,-4.44
2022-12-12T01:08:45.771Z,-4.46
2022-12-12T01:08:58.922Z,-4.46
2022-12-12T01:09:09.709Z,-4.46
2022-12-12T01:09:21.470Z,-4.46
2022-12-12T01:09:33.969Z,-4.47
2022-12-12T01:09:45.684Z,-4.44
2022-12-12T01:09:56.430Z,-4.47
2022-12-12T01:10:07.183Z,-4.47
2022-12-12T01:10:19.631Z,-4.47
2022-12-12T01:10:30.369Z,-4.46
2022-12-12T01:10:41.163Z,-4.48
2022-12-12T01:10:52.888Z,-4.47
2022-12-12T01:11:03.658Z,-4.48
2022-12-12T01:11:15.887Z,-4.50
2022-12-12T01:11:26.656Z,-4.48
2022-12-12T01:11:37.660Z,-4.48
2022-12-12T01:11:48.492Z,-4.48
2022-12-12T01:11:59.259Z,-4.48
2022-12-12T01:12:11.499Z,-4.50
2022-12-12T01:12:22.334Z,-4.50
2022-12-12T01:12:34.090Z,-4.50
2022-12-12T01:12:46.360Z,-4.50
2022-12-12T01:12:57.127Z,-4.50
2022-12-12T01:13:07.929Z,-4.48
2022-12-12T01:13:19.644Z,-4.51
2022-12-12T01:13:30.431Z,-4.51
2022-12-12T01:13:41.189Z,-4.51
2022-12-12T01:13:52.971Z,-4.51
2022-12-12T01:14:03.785Z,-4.54
2022-12-12T01:14:14.521Z,-4.51
2022-12-12T01:14:25.290Z,-4.51
2022-12-12T01:14:36.092Z,-4.54
2022-12-12T01:14:47.859Z,-4.55
2022-12-12T01:14:58.608Z,-4.54
2022-12-12T01:15:09.491Z,-4.55
2022-12-12T01:15:21.969Z,-4.57
2022-12-12T01:15:33.702Z,-4.55
2022-12-12T01:15:44.488Z,-4.55
2022-12-12T01:15:55.307Z,-4.57
2022-12-12T01:16:07.315Z,-4.57
2022-12-12T01:16:19.653Z,-4.57
2022-12-12T01:16:31.467Z,-4.57
2022-12-12T01:16:43.305Z,-4.57
2022-12-12T01:16:55.020Z,-4.58
2022-12-12T01:17:05.739Z,-4.59
2022-12-12T01:17:16.471Z,-4.59
2022-12-12T01:17:27.230Z,-4.59
2022-12-12T01:17:38.021Z,-4.59
2022-12-12T01:17:49.717Z,-4.61
2022-12-12T01:18:00.503Z,-4.62
2022-12-12T01:18:11.260Z,-4.62
2022-12-12T01:18:23.011Z,-4.61
2022-12-12T01:18:34.750Z,-4.62
2022-12-12T01:18:46.459Z,-4.62
2022-12-12T01:18:58.939Z,-4.62
2022-12-12T01:19:09.703Z,-4.62
2022-12-12T01:19:20.458Z,-4.64
2022-12-12T01:19:31.223Z,-4.64
2022-12-12T01:19:41.999Z,-4.65
2022-12-12T01:19:53.732Z,-4.64
2022-12-12T01:20:04.501Z,-4.64
2022-12-12T01:20:16.979Z,-4.64
2022-12-12T01:20:29.390Z,-4.66
2022-12-12T01:20:40.180Z,-4.65
2022-12-12T01:20:50.913Z,-4.66
2022-12-12T01:21:03.161Z,-4.66
2022-12-12T01:21:15.642Z,-4.68
2022-12-12T01:21:26.390Z,-4.68
2022-12-12T01:21:37.164Z,-4.68
2022-12-12T01:21:47.890Z,-4.68
2022-12-12T01:21:58.645Z,-4.69
2022-12-12T01:22:10.401Z,-4.69
2022-12-12T01:22:22.831Z,-4.69
2022-12-12T01:22:33.708Z,-4.68
2022-12-12T01:22:44.451Z,-4.69
2022-12-12T01:22:55.179Z,-4.69
2022-12-12T01:23:07.412Z,-4.68
2022-12-12T01:23:18.182Z,-4.69
2022-12-12T01:23:30.609Z,-4.69
2022-12-12T01:23:43.606Z,-4.68
2022-12-12T01:23:54.371Z,-4.68
2022-12-12T01:24:05.190Z,-4.68
2022-12-12T01:24:15.950Z,-4.68
2022-12-12T01:24:26.723Z,-4.68
2022-12-12T01:24:39.002Z,-4.69
2022-12-12T01:24:51.443Z,-4.66
2022-12-12T01:25:02.210Z,-4.68
2022-12-12T01:25:14.958Z,-4.68
2022-12-12T01:25:26.884Z,-4.69
2022-12-12T01:25:38.681Z,-4.69
2022-12-12T01:25:50.881Z,-4.71
2022-12-12T01:26:03.111Z,-4.68
2022-12-12T01:26:16.110Z,-4.69
2022-12-12T01:26:27.861Z,-4.69
2022-12-12T01:26:39.601Z,-4.68
2022-12-12T01:26:50.363Z,-4.68
2022-12-12T01:27:02.311Z,-4.69
2022-12-12T01:27:14.531Z,-4.68
2022-12-12T01:27:25.283Z,-4.66
2022-12-12T01:27:36.101Z,-4.66
2022-12-12T01:27:46.893Z,-4.66
2022-12-12T01:27:57.611Z,-4.65
2022-12-12T01:28:08.405Z,-4.66
2022-12-12T01:28:21.152Z,-4.66
2022-12-12T01:28:32.901Z,-4.65
2022-12-12T01:28:45.377Z,-4.65
2022-12-12T01:28:57.082Z,-4.66
2022-12-12T01:29:07.858Z,-4.65
2022-12-12T01:29:21.080Z,-4.65
2022-12-12T01:29:33.491Z,-4.64
2022-12-12T01:29:45.193Z,-4.64
2022-12-12T01:29:55.929Z,-4.65
2022-12-12T01:30:06.690Z,-4.64
2022-12-12T01:30:17.476Z,-4.65
2022-12-12T01:30:28.252Z,-4.64
2022-12-12T01:30:40.023Z,-4.64
2022-12-12T01:30:52.463Z,-4.65
2022-12-12T01:31:04.229Z,-4.64
2022-12-12T01:31:15.091Z,-4.64
2022-12-12T01:31:28.082Z,-4.62
2022-12-12T01:31:38.937Z,-4.61
2022-12-12T01:31:49.852Z,-4.62
2022-12-12T01:32:01.560Z,-4.62
2022-12-12T01:32:13.282Z,-4.62
2022-12-12T01:32:24.023Z,-4.61
2022-12-12T01:32:34.773Z,-4.61
2022-12-12T01:32:46.493Z,-4.61
2022-12-12T01:32:58.938Z,-4.59
2022-12-12T01:33:09.672Z,-4.59
2022-12-12T01:33:20.466Z,-4.61
2022-12-12T01:33:32.194Z,-4.58
2022-12-12T01:33:42.964Z,-4.59
2022-12-12T01:33:53.772Z,-4.59
2022-12-12T01:34:04.522Z,-4.57
2022-12-12T01:34:15.283Z,-4.58
2022-12-12T01:34:26.060Z,-4.57
2022-12-12T01:34:37.751Z,-4.57
2022-12-12T01:34:48.533Z,-4.58
2022-12-12T01:34:59.262Z,-4.55
2022-12-12T01:35:11.270Z,-4.58
2022-12-12T01:35:22.151Z,-4.57
2022-12-12T01:35:32.902Z,-4.55
2022-12-12T01:35:43.632Z,-4.57
2022-12-12T01:35:54.373Z,-4.55
2022-12-12T01:36:05.145Z,-4.55
2022-12-12T01:36:16.893Z,-4.55
2022-12-12T01:36:27.633Z,-4.55
2022-12-12T01:36:40.042Z,-4.55
2022-12-12T01:36:52.294Z,-4.55
2022-12-12T01:37:04.722Z,-4.57
2022-12-12T01:37:15.546Z,-4.55
2022-12-12T01:37:26.301Z,-4.55
2022-12-12T01:37:37.104Z,-4.54
2022-12-12T01:37:49.552Z,-4.54
2022-12-12T01:38:01.283Z,-4.55
2022-12-12T01:38:13.719Z,-4.55
2022-12-12T01:38:24.493Z,-4.54
2022-12-12T01:38:35.232Z,-4.55
2022-12-12T01:38:46.013Z,-4.54
2022-12-12T01:38:56.808Z,-4.55
2022-12-12T01:39:07.573Z,-4.55
2022-12-12T01:39:19.833Z,-4.55
2022-12-12T01:39:30.593Z,-4.54
2022-12-12T01:39:41.363Z,-4.57
2022-12-12T01:39:53.602Z,-4.55
2022-12-12T01:40:04.363Z,-4.55
2022-12-12T01:40:15.122Z,-4.55
2022-12-12T01:40:25.949Z,-4.54
2022-12-12T01:40:36.737Z,-4.55
2022-12-12T01:40:48.465Z,-4.55
2022-12-12T01:41:00.173Z,-4.57
2022-12-12T01:41:10.925Z,-4.55
2022-12-12T01:41:21.663Z,-4.57
2022-12-12T01:41:32.424Z,-4.57
2022-12-12T01:41:44.147Z,-4.57
2022-12-12T01:41:56.391Z,-4.58
2022-12-12T01:42:08.112Z,-4.57
2022-12-12T01:42:20.340Z,-4.57
2022-12-12T01:42:32.782Z,-4.57
2022-12-12T01:42:44.624Z,-4.58
2022-12-12T01:42:55.405Z,-4.58
2022-12-12T01:43:06.173Z,-4.57
2022-12-12T01:43:16.901Z,-4.57
2022-12-12T01:43:27.684Z,-4.58
2022-12-12T01:43:38.432Z,-4.58
2022-12-12T01:43:49.193Z,-4.58
2022-12-12T01:43:59.931Z,-4.59
2022-12-12T01:44:12.403Z,-4.59
2022-12-12T01:44:25.362Z,-4.59
2022-12-12T01:44:37.113Z,-4.61
2022-12-12T01:44:49.366Z,-4.59
2022-12-12T01:45:01.104Z,-4.59
2022-12-12T01:45:13.097Z,-4.61
2022-12-12T01:45:24.965Z,-4.61
2022-12-12T01:45:35.711Z,-4.59
2022-12-12T01:45:47.434Z,-4.61
2022-12-12T01:45:59.141Z,-4.61
2022-12-12T01:46:10.973Z,-4.62
2022-12-12T01:46:22.820Z,-4.62
2022-12-12T01:46:33.799Z,-4.65
2022-12-12T01:46:45.636Z,-4.64
2022-12-12T01:46:56.441Z,-4.64
2022-12-12T01:47:07.195Z,-4.65
2022-12-12T01:47:17.946Z,-4.66
2022-12-12T01:47:30.384Z,-4.66
2022-12-12T01:47:42.835Z,-4.66
2022-12-12T01:47:53.583Z,-4.68
2022-12-12T01:48:05.486Z,-4.68
2022-12-12T01:48:16.412Z,-4.68
2022-12-12T01:48:29.394Z,-4.69
2022-12-12T01:48:40.190Z,-4.69
2022-12-12T01:48:50.923Z,-4.69
2022-12-12T01:49:02.660Z,-4.69
2022-12-12T01:49:14.413Z,-4.71
2022-12-12T01:49:25.194Z,-4.71
2022-12-12T01:49:37.423Z,-4.71
2022-12-12T01:49:49.844Z,-4.71
2022-12-12T01:50:02.323Z,-4.73
2022-12-12T01:50:13.111Z,-4.73
2022-12-12T01:50:26.324Z,-4.73
2022-12-12T01:50:37.054Z,-4.73
2022-12-12T01:50:48.753Z,-4.73
2022-12-12T01:51:01.237Z,-4.75
2022-12-12T01:51:11.973Z,-4.76
2022-12-12T01:51:23.666Z,-4.76
2022-12-12T01:51:34.423Z,-4.75
2022-12-12T01:51:45.194Z,-4.76
2022-12-12T01:51:55.945Z,-4.76
2022-12-12T01:52:10.663Z,-4.76
2022-12-12T01:52:21.453Z,-4.76
2022-12-12T01:52:33.905Z,-4.76
2022-12-12T01:52:45.685Z,-4.79
2022-12-12T01:52:56.454Z,-4.77
2022-12-12T01:53:07.234Z,-4.79
2022-12-12T01:53:17.993Z,-4.79
2022-12-12T01:53:30.445Z,-4.79
2022-12-12T01:53:43.647Z,-4.77
2022-12-12T01:53:55.384Z,-4.79
2022-12-12T01:54:06.154Z,-4.77
2022-12-12T01:54:18.866Z,-4.77
2022-12-12T01:54:32.074Z,-4.79
2022-12-12T01:54:42.853Z,-4.79
2022-12-12T01:54:54.621Z,-4.79
2022-12-12T01:55:07.093Z,-4.79
2022-12-12T01:55:17.881Z,-4.79
2022-12-12T01:55:29.625Z,-4.80
2022-12-12T01:55:40.394Z,-4.80
2022-12-12T01:55:51.230Z,-4.80
2022-12-12T01:56:02.949Z,-4.80
2022-12-12T01:56:16.148Z,-4.82
2022-12-12T01:56:26.964Z,-4.82
2022-12-12T01:56:37.724Z,-4.82
2022-12-12T01:56:48.464Z,-4.83
2022-12-12T01:56:59.266Z,-4.83
2022-12-12T01:57:10.985Z,-4.85
2022-12-12T01:57:21.744Z,-4.86
2022-12-12T01:57:32.475Z,-4.86
2022-12-12T01:57:44.923Z,-4.85
2022-12-12T01:57:58.624Z,-4.85
2022-12-12T01:58:09.384Z,-4.87
2022-12-12T01:58:20.184Z,-4.86
2022-12-12T01:58:33.395Z,-4.87
2022-12-12T01:58:44.195Z,-4.87
2022-12-12T01:58:54.976Z,-4.87
2022-12-12T01:59:05.795Z,-4.89
2022-12-12T01:59:17.533Z,-4.87
2022-12-12T01:59:28.352Z,-4.89
2022-12-12T01:59:39.157Z,-4.89
2022-12-12T01:59:51.308Z,-4.91
2022-12-12T02:00:03.036Z,-4.91
2022-12-12T02:00:13.919Z,-4.91
2022-12-12T02:00:24.676Z,-4.93
2022-12-12T02:00:36.419Z,-4.93
2022-12-12T02:00:47.213Z,-4.93
2022-12-12T02:00:58.028Z,-4.93
2022-12-12T02:01:11.296Z,-4.94
2022-12-12T02:01:23.027Z,-4.95
2022-12-12T02:01:35.650Z,-4.95
2022-12-12T02:01:47.413Z,-4.95
2022-12-12T02:01:59.163Z,-4.97
2022-12-12T02:02:10.985Z,-4.97
2022-12-12T02:02:23.481Z,-4.98
2022-12-12T02:02:34.251Z,-4.98
2022-12-12T02:02:45.951Z,-4.98
2022-12-12T02:02:56.696Z,-4.98
2022-12-12T02:03:07.493Z,-5.00
2022-12-12T02:03:18.265Z,-5.00
2022-12-12T02:03:30.765Z,-5.00
2022-12-12T02:03:43.246Z,-5.00
2022-12-12T02:03:54.985Z,-5.01
2022-12-12T02:04:05.727Z,-5.00
2022-12-12T02:04:16.523Z,-5.01
2022-12-12T02:04:27.329Z,-5.03
2022-12-12T02:04:38.103Z,-5.01
2022-12-12T02:04:49.867Z,-5.03
2022-12-12T02:05:00.660Z,-5.03
2022-12-12T02:05:12.726Z,-5.03
2022-12-12T02:05:23.643Z,-5.03
2022-12-12T02:05:35.387Z,-5.04
2022-12-12T02:05:47.145Z,-5.04
2022-12-12T02:05:57.962Z,-5.03
2022-12-12T02:06:08.768Z,-5.04
2022-12-12T02:06:19.564Z,-5.05
2022-12-12T02:06:31.305Z,-5.05
2022-12-12T02:06:43.026Z,-5.07
2022-12-12T02:06:54.765Z,-5.05
2022-12-12T02:07:05.534Z,-5.07
2022-12-12T02:07:16.325Z,-5.07
2022-12-12T02:07:27.118Z,-5.08
2022-12-12T02:07:38.006Z,-5.08
2022-12-12T02:07:49.832Z,-5.08
2022-12-12T02:08:00.656Z,-5.08
2022-12-12T02:08:11.466Z,-5.11
2022-12-12T02:08:22.263Z,-5.12
2022-12-12T02:08:33.148Z,-5.11
2022-12-12T02:08:44.883Z,-5.11
2022-12-12T02:08:55.687Z,-5.11
2022-12-12T02:09:06.462Z,-5.12
2022-12-12T02:09:18.163Z,-5.16
2022-12-12T02:09:28.957Z,-5.16
2022-12-12T02:09:40.745Z,-5.14
2022-12-12T02:09:51.545Z,-5.16
2022-12-12T02:10:02.326Z,-5.16
2022-12-12T02:10:13.116Z,-5.16
2022-12-12T02:10:25.558Z,-5.17
2022-12-12T02:10:37.996Z,-5.17
2022-12-12T02:10:51.213Z,-5.16
2022-12-12T02:11:02.966Z,-5.16
2022-12-12T02:11:13.687Z,-5.17
2022-12-12T02:11:25.416Z,-5.16
2022-12-12T02:11:37.685Z,-5.16
2022-12-12T02:11:48.465Z,-5.16
2022-12-12T02:12:00.157Z,-5.16
2022-12-12T02:12:10.915Z,-5.16
2022-12-12T02:12:21.666Z,-5.14
2022-12-12T02:12:32.465Z,-5.16
2022-12-12T02:12:45.459Z,-5.16
2022-12-12T02:12:56.235Z,-5.17
2022-12-12T02:13:06.968Z,-5.19
2022-12-12T02:13:18.694Z,-5.17
2022-12-12T02:13:31.426Z,-5.19
2022-12-12T02:13:43.175Z,-5.17
2022-12-12T02:13:53.945Z,-5.19
2022-12-12T02:14:05.687Z,-5.19
2022-12-12T02:14:16.483Z,-5.20
2022-12-12T02:14:28.916Z,-5.20
2022-12-12T02:14:41.628Z,-5.19
2022-12-12T02:14:52.366Z,-5.20
2022-12-12T02:15:03.138Z,-5.20
2022-12-12T02:15:15.275Z,-5.22
2022-12-12T02:15:27.148Z,-5.22
2022-12-12T02:15:39.145Z,-5.22
2022-12-12T02:15:50.882Z,-5.23
2022-12-12T02:16:01.678Z,-5.22
2022-12-12T02:16:14.187Z,-5.23
2022-12-12T02:16:25.940Z,-5.23
2022-12-12T02:16:37.744Z,-5.22
2022-12-12T02:16:49.740Z,-5.23
2022-12-12T02:17:00.527Z,-5.25
2022-12-12T02:17:12.982Z,-5.25
2022-12-12T02:17:23.755Z,-5.23
2022-12-12T02:17:35.519Z,-5.23
2022-12-12T02:17:47.958Z,-5.25
2022-12-12T02:18:02.219Z,-5.26
2022-12-12T02:18:14.326Z,-5.25
2022-12-12T02:18:27.107Z,-5.26
2022-12-12T02:18:38.858Z,-5.26
2022-12-12T02:18:50.620Z,-5.26
2022-12-12T02:19:01.336Z,-5.26
2022-12-12T02:19:13.069Z,-5.27
2022-12-12T02:19:24.785Z,-5.26
2022-12-12T02:19:35.560Z,-5.27
2022-12-12T02:19:46.315Z,-5.27
2022-12-12T02:19:57.156Z,-5.26
2022-12-12T02:20:07.939Z,-5.27
2022-12-12T02:20:18.728Z,-5.27
2022-12-12T02:20:29.487Z,-5.26
2022-12-12T02:20:40.304Z,-5.27
2022-12-12T02:20:51.098Z,-5.30
2022-12-12T02:21:01.879Z,-5.30
2022-12-12T02:21:13.584Z,-5.27
2022-12-12T02:21:24.328Z,-5.27
2022-12-12T02:21:36.787Z,-5.30
2022-12-12T02:21:47.556Z,-5.30
2022-12-12T02:21:59.814Z,-5.27
2022-12-12T02:22:11.536Z,-5.27
2022-12-12T02:22:22.266Z,-5.30
2022-12-12T02:22:33.989Z,-5.30
2022-12-12T02:22:46.197Z,-5.30
2022-12-12T02:22:56.956Z,-5.30
2022-12-12T02:23:07.736Z,-5.30
2022-12-12T02:23:19.458Z,-5.30
2022-12-12T02:23:30.251Z,-5.27
2022-12-12T02:23:43.467Z,-5.30
2022-12-12T02:23:56.078Z,-5.31
2022-12-12T02:24:06.824Z,-5.31
2022-12-12T02:24:22.976Z,-5.31
2022-12-12T02:24:35.666Z,-5.31
2022-12-12T02:24:47.380Z,-5.31
2022-12-12T02:24:58.177Z,-5.31
2022-12-12T02:25:08.933Z,-5.33
2022-12-12T02:25:20.656Z,-5.33
2022-12-12T02:25:32.357Z,-5.31
2022-12-12T02:25:43.127Z,-5.33
2022-12-12T02:25:55.568Z,-5.34
2022-12-12T02:26:06.354Z,-5.33
2022-12-12T02:26:17.136Z,-5.34
2022-12-12T02:26:27.876Z,-5.35
2022-12-12T02:26:39.608Z,-5.35
2022-12-12T02:26:51.848Z,-5.35
2022-12-12T02:27:03.565Z,-5.37
2022-12-12T02:27:14.326Z,-5.37
2022-12-12T02:27:25.126Z,-5.37
2022-12-12T02:27:35.955Z,-5.37
2022-12-12T02:27:46.726Z,-5.37
2022-12-12T02:27:57.499Z,-5.35